Time;durP1;ratioP1;P1;durP2;ratioP2;P2;SDS_P1;SDS_P2;PMS_P1;PMS_P2;Temp;Humidity;BMP_temperature;BMP_pressure;BME280_temperature;BME280_humidity;BME280_pressure;Samples;Min_cycle;Max_cycle;Signal;HPM_P1;HPM_P2
2021/08/15 00:01:40;;;;;;;13.50;8.75;;;;;;;25.62;43.41;98938.78;5112577;28;20058;-89
2021/08/15 00:04:06;;;;;;;14.52;8.93;;;;;;;25.42;44.39;98918.72;5113747;28;20032;-87
2021/08/15 00:06:33;;;;;;;18.58;9.10;;;;;;;25.44;44.43;98941.25;5114239;28;20043;-90
2021/08/15 00:08:59;;;;;;;12.75;8.75;;;;;;;25.40;44.72;98931.63;5114239;28;20074;-88
2021/08/15 00:11:24;;;;;;;15.48;8.73;;;;;;;25.36;44.32;98936.44;5115581;28;20056;-88
2021/08/15 00:13:50;;;;;;;16.52;9.40;;;;;;;25.41;44.55;98933.31;5113578;28;20496;-90
2021/08/15 00:16:16;;;;;;;12.18;8.82;;;;;;;25.39;44.53;98935.31;5110890;28;20032;-88
2021/08/15 00:18:42;;;;;;;12.88;8.75;;;;;;;25.31;44.61;98926.94;5113901;28;20395;-88
2021/08/15 00:21:08;;;;;;;21.42;9.25;;;;;;;25.28;44.60;98941.69;5113479;28;20042;-88
2021/08/15 00:23:35;;;;;;;13.73;8.48;;;;;;;25.18;44.65;98919.81;5113949;28;20036;-88
2021/08/15 00:26:01;;;;;;;13.43;8.63;;;;;;;25.23;44.72;98940.34;5114195;27;20051;-88
2021/08/15 00:28:26;;;;;;;13.48;8.95;;;;;;;25.09;45.45;98939.63;5113829;28;20895;-88
2021/08/15 00:30:52;;;;;;;13.73;9.20;;;;;;;25.07;45.40;98936.19;5110819;28;20039;-88
2021/08/15 00:33:18;;;;;;;14.05;9.07;;;;;;;24.97;45.82;98936.06;5113469;28;20044;-88
2021/08/15 00:35:44;;;;;;;12.98;9.32;;;;;;;24.85;45.48;98918.06;5112070;28;20039;-89
2021/08/15 00:38:09;;;;;;;16.83;9.30;;;;;;;24.86;45.43;98932.53;5113779;28;20039;-88
2021/08/15 00:40:37;;;;;;;16.17;9.05;;;;;;;24.84;45.59;98929.09;5113929;28;20035;-89
2021/08/15 00:43:03;;;;;;;14.02;9.27;;;;;;;24.80;46.36;98933.91;5118705;27;20043;-87
2021/08/15 00:45:29;;;;;;;20.77;9.65;;;;;;;24.77;45.92;98935.03;5113428;27;20036;-88
2021/08/15 00:47:54;;;;;;;18.65;8.80;;;;;;;24.80;45.88;98923.88;5114377;27;20459;-88
2021/08/15 00:50:20;;;;;;;13.48;8.73;;;;;;;24.73;45.53;98925.41;5113431;28;20039;-87
2021/08/15 00:52:46;;;;;;;15.57;9.65;;;;;;;24.60;45.82;98911.94;5113480;28;20051;-89
2021/08/15 00:55:12;;;;;;;14.68;8.73;;;;;;;24.67;45.84;98911.44;5114590;27;20035;-87
2021/08/15 00:57:41;;;;;;;15.80;9.23;;;;;;;24.64;46.24;98923.44;5113549;28;20067;-87
2021/08/15 01:00:10;;;;;;;12.48;8.73;;;;;;;24.62;46.47;98911.84;5109426;28;20096;-88
2021/08/15 01:02:36;;;;;;;;;;;;;;;24.60;46.69;98917.38;5114089;28;20046;-88
2021/08/15 01:05:03;;;;;;;21.30;9.27;;;;;;;24.57;46.38;98912.22;5113544;28;20531;-88
2021/08/15 01:07:29;;;;;;;13.90;9.05;;;;;;;24.43;46.56;98882.53;5113158;28;20044;-88
2021/08/15 01:09:55;;;;;;;17.17;9.73;;;;;;;24.51;46.83;98895.56;5113701;27;20416;-88
2021/08/15 01:12:26;;;;;;;15.15;9.73;;;;;;;24.49;46.78;98903.81;5109856;28;20134;-88
2021/08/15 01:14:54;;;;;;;16.27;9.85;;;;;;;24.38;46.92;98887.50;5113308;28;20057;-88
2021/08/15 01:17:22;;;;;;;21.27;9.55;;;;;;;24.36;46.90;98893.06;5111961;28;20039;-88
2021/08/15 01:19:52;;;;;;;13.37;9.30;;;;;;;24.37;47.27;98891.19;5113087;28;20039;-89
2021/08/15 01:22:17;;;;;;;12.88;9.15;;;;;;;24.25;47.66;98892.22;5111782;28;20272;-88
2021/08/15 01:24:43;;;;;;;18.25;9.43;;;;;;;24.28;47.53;98903.69;5113150;28;20051;-87
2021/08/15 01:27:09;;;;;;;15.45;9.25;;;;;;;24.23;47.47;98905.94;5113042;27;20032;-88
2021/08/15 01:29:36;;;;;;;15.15;9.57;;;;;;;24.08;48.13;98899.88;5114659;27;20061;-89
2021/08/15 01:32:03;;;;;;;11.88;8.73;;;;;;;24.13;48.29;98908.50;5109119;28;20035;-88
2021/08/15 01:34:28;;;;;;;15.50;9.40;;;;;;;24.02;48.11;98900.38;5112821;28;20036;-88
2021/08/15 01:36:54;;;;;;;16.48;9.40;;;;;;;24.07;48.10;98911.75;5115110;28;20362;-88
2021/08/15 01:39:20;;;;;;;16.20;9.68;;;;;;;24.00;48.19;98896.91;5115933;27;20035;-88
2021/08/15 01:41:45;;;;;;;19.13;9.85;;;;;;;24.03;48.45;98910.25;5115067;27;20051;-87
2021/08/15 01:44:11;;;;;;;14.00;9.13;;;;;;;23.98;48.73;98910.63;5112590;28;20039;-88
2021/08/15 01:46:39;;;;;;;14.73;9.05;;;;;;;23.90;49.65;98896.78;5110973;28;20123;-88
2021/08/15 01:49:04;;;;;;;13.88;9.23;;;;;;;23.85;49.11;98890.84;5113679;27;20043;-88
2021/08/15 01:51:31;;;;;;;19.50;9.23;;;;;;;23.88;49.01;98906.91;5113560;27;20065;-88
2021/08/15 01:54:02;;;;;;;14.52;8.90;;;;;;;23.83;49.26;98900.97;5118975;27;20051;-88
2021/08/15 01:56:28;;;;;;;18.35;9.48;;;;;;;23.69;49.17;98899.31;5113979;27;20065;-88
2021/08/15 01:58:53;;;;;;;17.33;8.52;;;;;;;23.74;49.02;98902.53;5112579;28;20040;-88
2021/08/15 02:01:21;;;;;;;12.90;9.48;;;;;;;23.74;49.31;98909.81;5110987;28;20093;-88
2021/08/15 02:03:49;;;;;;;17.47;9.60;;;;;;;23.73;49.30;98906.25;5113993;28;20066;-88
2021/08/15 02:06:17;;;;;;;16.97;10.13;;;;;;;23.70;49.64;98909.22;5114655;28;20036;-89
2021/08/15 02:08:43;;;;;;;15.45;9.00;;;;;;;23.66;49.70;98904.13;5113492;28;20280;-88
2021/08/15 02:11:09;;;;;;;12.25;8.45;;;;;;;23.65;49.36;98907.84;5113660;28;20488;-88
2021/08/15 02:13:41;;;;;;;15.82;9.73;;;;;;;23.59;49.47;98898.31;5113286;28;20047;-88
2021/08/15 02:16:07;;;;;;;13.40;9.43;;;;;;;23.58;50.43;98902.03;5109116;28;20400;-89
2021/08/15 02:18:32;;;;;;;15.68;9.52;;;;;;;23.54;50.92;98901.41;5111909;28;20039;-88
2021/08/15 02:21:00;;;;;;;15.25;9.98;;;;;;;23.51;50.88;98901.66;5114358;28;20442;-89
2021/08/15 02:23:25;;;;;;;15.35;9.45;;;;;;;23.39;50.86;98889.03;5112602;28;20071;-89
2021/08/15 02:25:53;;;;;;;15.70;9.38;;;;;;;23.41;51.12;98894.34;5112207;28;20082;-88
2021/08/15 02:28:19;;;;;;;14.98;9.38;;;;;;;23.30;51.61;98896.03;5111067;28;20093;-88
2021/08/15 02:30:44;;;;;;;15.93;9.10;;;;;;;23.29;51.56;98891.63;5110932;28;20071;-88
2021/08/15 02:33:11;;;;;;;15.23;9.38;;;;;;;23.27;51.24;98893.56;5112731;28;20039;-88
2021/08/15 02:35:36;;;;;;;14.13;9.02;;;;;;;23.29;51.15;98902.47;5113577;28;20047;-89
2021/08/15 02:38:04;;;;;;;14.57;8.52;;;;;;;23.29;50.85;98891.63;5113315;28;20042;-88
2021/08/15 02:40:30;;;;;;;13.00;9.25;;;;;;;23.21;51.19;98887.75;5113217;28;20036;-88
2021/08/15 02:42:56;;;;;;;12.18;8.95;;;;;;;23.24;51.37;98901.06;5113440;28;20184;-89
2021/08/15 02:45:23;;;;;;;15.60;9.38;;;;;;;23.25;51.41;98897.38;5110701;28;20070;-88
2021/08/15 02:47:49;;;;;;;16.45;8.88;;;;;;;23.24;51.23;98892.94;5112365;28;20036;-88
2021/08/15 02:50:16;;;;;;;16.60;9.07;;;;;;;23.23;50.81;98891.22;5112226;28;20042;-88
2021/08/15 02:52:42;;;;;;;15.23;10.35;;;;;;;23.20;50.89;98889.59;5113278;28;20119;-87
2021/08/15 02:55:10;;;;;;;16.13;9.35;;;;;;;23.13;51.06;98875.63;5113127;28;20122;-89
2021/08/15 02:57:36;;;;;;;15.35;8.60;;;;;;;23.19;51.75;98889.72;5113436;28;20063;-88
2021/08/15 03:00:03;;;;;;;17.73;9.48;;;;;;;23.14;52.09;98892.78;5113455;28;20816;-88
2021/08/15 03:02:29;;;;;;;15.00;9.23;;;;;;;23.00;51.82;98871.25;5115659;28;20036;-88
2021/08/15 03:04:54;;;;;;;12.27;8.63;;;;;;;23.04;52.16;98879.06;5116598;27;20085;-88
2021/08/15 03:07:20;;;;;;;18.17;9.00;;;;;;;22.99;52.18;98883.94;5116004;28;20044;-86
2021/08/15 03:09:46;;;;;;;13.60;8.65;;;;;;;22.97;52.06;98878.63;5117212;28;20400;-88
2021/08/15 03:12:14;;;;;;;12.93;8.80;;;;;;;22.94;52.05;98881.59;5116110;28;20447;-88
2021/08/15 03:14:39;;;;;;;12.02;8.95;;;;;;;22.95;52.10;98886.03;5110534;28;20039;-88
2021/08/15 03:17:06;;;;;;;16.33;9.05;;;;;;;22.92;51.89;98883.56;5115590;27;20047;-88
2021/08/15 03:19:32;;;;;;;13.35;9.30;;;;;;;22.91;52.21;98886.38;5114190;28;20031;-88
2021/08/15 03:21:58;;;;;;;14.60;9.27;;;;;;;22.88;52.22;98878.47;5115548;28;20044;-87
2021/08/15 03:24:23;;;;;;;13.73;9.60;;;;;;;22.73;52.42;98856.97;5115292;28;20028;-87
2021/08/15 03:26:49;;;;;;;13.23;9.10;;;;;;;22.82;52.59;98877.09;5116407;28;20038;-87
2021/08/15 03:29:17;;;;;;;20.02;8.82;;;;;;;22.74;52.43;98879.50;5116381;28;20043;-88
2021/08/15 03:31:44;;;;;;;16.67;9.10;;;;;;;22.74;52.60;98874.94;5111946;28;20048;-88
2021/08/15 03:34:10;;;;;;;14.13;8.18;;;;;;;22.67;53.15;98867.41;5114006;28;20119;-87
2021/08/15 03:36:36;;;;;;;16.92;8.77;;;;;;;22.73;53.23;98877.81;5115462;28;20047;-88
2021/08/15 03:39:03;;;;;;;17.35;8.90;;;;;;;22.72;52.93;98876.91;5115349;28;20697;-89
2021/08/15 03:41:29;;;;;;;14.95;9.10;;;;;;;22.70;52.67;98865.31;5115000;28;20063;-88
2021/08/15 03:43:55;;;;;;;15.13;9.07;;;;;;;22.69;53.11;98870.88;5116249;28;20483;-87
2021/08/15 03:46:23;;;;;;;12.75;8.40;;;;;;;22.63;53.05;98861.34;5113647;28;20413;-88
2021/08/15 03:48:49;;;;;;;15.43;9.05;;;;;;;22.65;53.27;98875.66;5115272;28;20081;-87
2021/08/15 03:51:15;;;;;;;17.45;9.88;;;;;;;22.59;53.69;98864.41;5114998;28;20447;-89
2021/08/15 03:53:40;;;;;;;15.65;8.98;;;;;;;22.48;53.80;98865.22;5115948;27;20423;-87
2021/08/15 03:56:06;;;;;;;13.93;9.57;;;;;;;22.44;53.50;98861.84;5114821;28;20115;-88
2021/08/15 03:58:32;;;;;;;13.57;8.40;;;;;;;22.51;53.83;98864.97;5114954;28;20039;-88
2021/08/15 04:00:58;;;;;;;16.55;8.95;;;;;;;22.48;53.93;98874.19;5111799;28;20054;-88
2021/08/15 04:03:25;;;;;;;13.50;8.75;;;;;;;22.43;54.15;98870.13;5114564;28;20126;-89
2021/08/15 04:05:55;;;;;;;16.75;9.00;;;;;;;22.38;54.51;98867.75;5114888;28;20039;-88
2021/08/15 04:08:21;;;;;;;14.00;9.48;;;;;;;22.35;55.10;98863.41;5116498;27;20032;-88
2021/08/15 04:10:47;;;;;;;14.40;9.15;;;;;;;22.32;55.38;98862.78;5114600;28;20040;-88
2021/08/15 04:13:13;;;;;;;11.90;9.05;;;;;;;22.21;55.07;98844.56;5115489;28;20044;-87
2021/08/15 04:15:39;;;;;;;20.40;9.30;;;;;;;22.27;55.12;98871.25;5112657;28;20083;-88
2021/08/15 04:18:04;;;;;;;19.67;9.98;;;;;;;22.11;55.49;98857.06;5117339;27;20127;-88
2021/08/15 04:20:31;;;;;;;18.08;9.43;;;;;;;22.16;55.56;98852.16;5114352;28;20043;-88
2021/08/15 04:22:57;;;;;;;16.88;9.85;;;;;;;22.09;55.65;98845.47;5121767;27;20040;-88
2021/08/15 04:25:23;;;;;;;15.02;9.82;;;;;;;22.16;55.91;98868.41;5115207;28;20043;-88
2021/08/15 04:27:49;;;;;;;16.45;9.52;;;;;;;22.07;55.48;98856.41;5115619;28;20046;-89
2021/08/15 04:30:14;;;;;;;15.77;9.52;;;;;;;22.18;55.61;98871.88;5113434;28;20047;-88
2021/08/15 04:32:40;;;;;;;15.25;10.35;;;;;;;22.17;56.33;98872.00;5115915;27;20031;-86
2021/08/15 04:35:07;;;;;;;16.38;10.57;;;;;;;22.08;56.45;98863.56;5116264;27;20047;-88
2021/08/15 04:37:35;;;;;;;17.15;9.48;;;;;;;22.12;56.47;98878.63;5121799;27;20073;-89
2021/08/15 04:40:00;;;;;;;16.90;9.88;;;;;;;22.13;56.63;98877.63;5117058;27;20038;-89
2021/08/15 04:42:26;;;;;;;14.88;10.18;;;;;;;22.10;57.12;98874.31;5115461;28;20099;-88
2021/08/15 04:44:52;;;;;;;14.50;9.98;;;;;;;22.12;57.14;98872.31;5111659;28;20101;-88
2021/08/15 04:47:17;;;;;;;16.70;10.07;;;;;;;22.09;57.18;98876.13;5113666;28;20036;-87
2021/08/15 04:49:43;;;;;;;15.23;10.05;;;;;;;22.16;57.21;98879.25;5114089;27;20031;-88
2021/08/15 04:52:09;;;;;;;16.65;10.35;;;;;;;22.08;58.02;98877.09;5115410;28;20052;-88
2021/08/15 04:54:36;;;;;;;17.92;10.20;;;;;;;22.13;57.54;98874.91;5114813;28;20458;-88
2021/08/15 04:57:02;;;;;;;19.23;10.43;;;;;;;22.25;57.45;98878.63;5115266;28;20039;-88
2021/08/15 04:59:28;;;;;;;19.27;10.57;;;;;;;22.27;56.76;98878.50;5115178;28;20040;-88
2021/08/15 05:01:54;;;;;;;20.33;10.45;;;;;;;22.22;56.77;98864.41;5112531;28;20057;-88
2021/08/15 05:04:20;;;;;;;17.23;10.80;;;;;;;22.28;57.37;98883.81;5115053;28;20031;-89
2021/08/15 05:06:46;;;;;;;16.75;10.82;;;;;;;22.31;57.41;98883.56;5115072;28;20049;-88
2021/08/15 05:09:12;;;;;;;18.23;11.60;;;;;;;22.35;57.27;98885.06;5114724;28;20035;-88
2021/08/15 05:11:39;;;;;;;17.92;10.40;;;;;;;22.44;57.41;98890.81;5114994;28;20043;-89
2021/08/15 05:14:06;;;;;;;17.90;10.55;;;;;;;22.50;56.51;98888.50;5114431;28;20046;-88
2021/08/15 05:16:32;;;;;;;18.85;10.90;;;;;;;22.58;56.62;98885.22;5111077;28;20035;-89
2021/08/15 05:18:58;;;;;;;18.05;10.88;;;;;;;22.64;56.54;98883.88;5113297;28;20498;-88
2021/08/15 05:21:24;;;;;;;15.43;10.57;;;;;;;22.56;56.79;98860.09;5112886;28;20039;-88
2021/08/15 05:23:49;;;;;;;16.20;10.43;;;;;;;22.72;57.29;98881.47;5114630;28;20035;-88
2021/08/15 05:26:15;;;;;;;16.98;11.38;;;;;;;22.64;57.07;98867.63;5114611;28;20051;-88
2021/08/15 05:28:43;;;;;;;17.92;11.38;;;;;;;22.79;57.32;98871.88;5113955;28;20044;-88
2021/08/15 05:31:09;;;;;;;23.00;13.57;;;;;;;23.05;56.57;98879.91;5111901;28;20039;-87
2021/08/15 05:33:34;;;;;;;20.08;13.27;;;;;;;23.27;55.45;98870.97;5114522;28;20499;-88
2021/08/15 05:36:00;;;;;;;20.27;13.50;;;;;;;23.62;55.20;98880.94;5114556;28;20031;-88
2021/08/15 05:38:26;;;;;;;21.17;14.15;;;;;;;23.80;52.92;98867.78;5114137;28;20039;-87
2021/08/15 05:40:52;;;;;;;24.30;14.40;;;;;;;24.07;53.48;98889.13;5114060;28;20081;-88
2021/08/15 05:43:17;;;;;;;20.58;12.75;;;;;;;24.19;51.76;98859.09;5114365;28;20067;-89
2021/08/15 05:45:45;;;;;;;20.35;12.48;;;;;;;24.53;51.85;98880.84;5111802;28;20036;-89
2021/08/15 05:48:10;;;;;;;20.52;11.90;;;;;;;24.67;51.61;98885.09;5112782;28;20123;-89
2021/08/15 05:50:36;;;;;;;20.90;10.48;;;;;;;24.82;49.85;98882.09;5112800;28;20469;-88
2021/08/15 05:53:02;;;;;;;14.32;10.30;;;;;;;25.10;49.07;98886.94;5112644;28;20038;-89
2021/08/15 05:55:28;;;;;;;13.38;9.35;;;;;;;25.16;48.13;98878.25;5114136;27;20063;-88
2021/08/15 05:57:54;;;;;;;15.70;10.50;;;;;;;25.20;48.74;98876.16;5114058;28;20046;-89
2021/08/15 06:00:20;;;;;;;13.55;9.10;;;;;;;25.33;47.81;98886.84;5110729;28;20130;-89
2021/08/15 06:02:47;;;;;;;18.38;10.15;;;;;;;25.48;47.15;98890.09;5112641;28;20101;-89
2021/08/15 06:05:14;;;;;;;17.33;9.47;;;;;;;25.40;47.57;98886.19;5114067;28;20553;-90
2021/08/15 06:07:40;;;;;;;20.88;9.73;;;;;;;25.71;46.35;98890.81;5113465;28;20067;-88
2021/08/15 06:10:08;;;;;;;14.88;9.50;;;;;;;25.83;45.49;98900.66;5113397;28;20031;-88
2021/08/15 06:12:34;;;;;;;17.63;10.30;;;;;;;25.83;45.80;98901.50;5111623;28;20070;-89
2021/08/15 06:15:01;;;;;;;18.15;9.23;;;;;;;25.68;45.58;98896.56;5110828;28;20445;-90
2021/08/15 06:17:26;;;;;;;15.73;9.77;;;;;;;25.62;46.35;98906.09;5114331;28;20542;-89
2021/08/15 06:19:53;;;;;;;19.08;9.68;;;;;;;25.56;46.57;98896.59;5116424;27;20051;-89
2021/08/15 06:22:19;;;;;;;14.57;9.38;;;;;;;25.73;45.48;98889.69;5112563;28;20063;-90
2021/08/15 06:24:46;;;;;;;16.10;9.18;;;;;;;26.04;45.23;98895.16;5115768;27;20496;-88
2021/08/15 06:27:12;;;;;;;17.08;9.45;;;;;;;26.32;44.75;98887.25;5112739;28;20038;-88
2021/08/15 06:29:38;;;;;;;18.08;10.32;;;;;;;26.67;43.53;98886.78;5113595;28;20070;-89
2021/08/15 06:32:04;;;;;;;13.70;9.48;;;;;;;26.84;43.27;98882.50;5109284;28;20039;-89
2021/08/15 06:34:30;;;;;;;17.05;9.50;;;;;;;26.87;43.34;98895.88;5114003;28;20040;-88
2021/08/15 06:36:57;;;;;;;13.50;9.20;;;;;;;27.08;42.65;98898.44;5115298;28;20043;-90
2021/08/15 06:39:23;;;;;;;13.48;9.30;;;;;;;27.20;43.08;98894.59;5119801;27;20078;-88
2021/08/15 06:41:49;;;;;;;17.73;9.63;;;;;;;27.16;42.96;98895.88;5117451;28;20036;-91
2021/08/15 06:44:16;;;;;;;16.75;10.80;;;;;;;27.28;42.89;98893.88;5117507;28;20135;-88
2021/08/15 06:46:42;;;;;;;18.75;10.57;;;;;;;27.35;42.64;98883.25;5112721;28;20032;-90
2021/08/15 06:49:07;;;;;;;16.15;9.85;;;;;;;27.14;43.84;98888.84;5116707;28;20088;-90
2021/08/15 06:51:33;;;;;;;16.95;10.45;;;;;;;26.56;44.35;98873.28;5116784;28;20053;-91
2021/08/15 06:54:01;;;;;;;17.60;9.45;;;;;;;27.01;43.73;98889.97;5118361;28;21423;-90
2021/08/15 06:56:27;;;;;;;13.53;9.60;;;;;;;27.23;41.91;98885.25;5113917;28;20040;-90
2021/08/15 06:58:52;;;;;;;15.38;9.98;;;;;;;27.28;42.21;98893.88;5115597;28;20057;-90
2021/08/15 07:01:18;;;;;;;14.98;10.02;;;;;;;27.41;42.84;98896.31;5114089;27;20040;-91
2021/08/15 07:03:45;;;;;;;11.98;9.93;;;;;;;27.30;42.83;98880.94;5116247;28;20480;-91
2021/08/15 07:06:11;;;;;;;20.08;10.18;;;;;;;27.04;44.15;98889.72;5116318;28;20123;-91
2021/08/15 07:08:37;;;;;;;11.65;10.07;;;;;;;27.18;42.86;98882.94;5116120;28;20248;-91
2021/08/15 07:11:05;;;;;;;18.20;10.63;;;;;;;27.68;42.58;98892.81;5117170;27;20059;-91
2021/08/15 07:13:30;;;;;;;13.60;9.55;;;;;;;27.72;42.00;98888.78;5117411;28;20048;-91
2021/08/15 07:15:56;;;;;;;15.32;10.27;;;;;;;28.12;41.38;98898.59;5115541;28;20517;-91
2021/08/15 07:18:22;;;;;;;15.90;9.90;;;;;;;28.39;39.69;98889.56;5118068;28;20048;-91
2021/08/15 07:20:49;;;;;;;13.57;9.25;;;;;;;28.55;38.80;98879.84;5116357;28;20035;-92
2021/08/15 07:23:15;;;;;;;15.50;10.00;;;;;;;28.64;38.18;98889.88;5116243;28;20085;-92
2021/08/15 07:25:41;;;;;;;16.90;9.57;;;;;;;28.86;38.27;98896.78;5117870;28;20035;-91
2021/08/15 07:28:08;;;;;;;13.00;9.82;;;;;;;29.07;37.89;98891.00;5117487;28;20535;-91
2021/08/15 07:30:34;;;;;;;15.52;10.15;;;;;;;29.24;37.50;98892.91;5115312;28;20035;-92
2021/08/15 07:33:03;;;;;;;15.85;9.90;;;;;;;29.34;37.08;98872.78;5118237;27;20122;-92
2021/08/15 07:35:30;;;;;;;17.50;10.00;;;;;;;29.44;36.81;98890.00;5117737;28;20092;-92
2021/08/15 07:37:57;;;;;;;15.23;10.13;;;;;;;29.76;36.32;98892.16;5113377;28;20044;-91
2021/08/15 07:40:24;;;;;;;16.63;10.88;;;;;;;30.07;35.60;98886.16;5116086;28;20051;-91
2021/08/15 07:42:51;;;;;;;13.57;10.52;;;;;;;30.28;36.26;98874.81;5117860;28;20047;-92
2021/08/15 07:45:19;;;;;;;14.07;10.93;;;;;;;30.48;35.61;98880.88;5115421;28;20036;-91
2021/08/15 07:47:44;;;;;;;18.65;10.55;;;;;;;30.63;35.54;98867.38;5117070;28;20044;-91
2021/08/15 07:50:11;;;;;;;17.77;10.15;;;;;;;30.72;34.43;98855.38;5117136;28;20046;-92
2021/08/15 07:52:37;;;;;;;18.23;9.82;;;;;;;30.95;34.34;98872.13;5117298;28;20040;-92
2021/08/15 07:55:04;;;;;;;16.27;11.07;;;;;;;30.97;34.62;98860.94;5119114;27;20047;-92
2021/08/15 07:57:30;;;;;;;17.03;12.10;;;;;;;31.03;34.78;98852.88;5109283;27;20036;-91
2021/08/15 07:59:56;;;;;;;15.73;10.43;;;;;;;31.10;34.83;98862.16;5113987;28;20278;-92
2021/08/15 08:02:24;;;;;;;18.50;12.88;;;;;;;31.26;34.80;98861.31;5115985;28;20122;-92
2021/08/15 08:04:51;;;;;;;20.75;14.60;;;;;;;31.49;34.79;98856.00;5115577;28;20082;-91
2021/08/15 08:07:19;;;;;;;18.20;10.83;;;;;;;31.60;34.01;98854.81;5115531;28;20377;-92
2021/08/15 08:09:45;;;;;;;15.68;11.30;;;;;;;31.67;33.97;98852.22;5115611;28;20803;-92
2021/08/15 08:12:11;;;;;;;15.50;11.10;;;;;;;31.78;34.00;98856.47;5115264;28;20049;-90
2021/08/15 08:14:37;;;;;;;19.80;13.45;;;;;;;31.89;33.61;98864.34;5117563;28;20032;-91
2021/08/15 08:17:03;;;;;;;20.75;12.43;;;;;;;31.90;33.28;98852.31;5115697;28;20067;-92
2021/08/15 08:19:30;;;;;;;19.90;11.70;;;;;;;31.97;32.96;98853.34;5117852;28;20118;-93
2021/08/15 08:21:56;;;;;;;16.43;10.80;;;;;;;32.07;32.15;98845.75;5117207;28;20040;-92
2021/08/15 08:24:22;;;;;;;14.85;9.95;;;;;;;31.87;30.98;98844.41;5111934;28;20562;-91
2021/08/15 08:26:48;;;;;;;15.82;10.27;;;;;;;31.98;31.26;98844.06;5115405;28;20046;-92
2021/08/15 08:29:13;;;;;;;15.93;10.25;;;;;;;32.05;31.28;98845.06;5115857;28;20488;-91
2021/08/15 08:31:39;;;;;;;15.75;10.52;;;;;;;32.16;31.11;98845.72;5111621;28;20048;-92
2021/08/15 08:34:05;;;;;;;15.15;10.05;;;;;;;32.30;31.56;98843.09;5109821;27;20038;-92
2021/08/15 08:36:32;;;;;;;17.08;10.75;;;;;;;32.15;31.23;98839.38;5115805;27;20055;-91
2021/08/15 08:38:58;;;;;;;15.20;10.77;;;;;;;32.38;30.98;98841.31;5115034;28;20085;-91
2021/08/15 08:41:24;;;;;;;15.90;10.68;;;;;;;32.54;31.05;98844.88;5114631;28;20043;-92
2021/08/15 08:43:50;;;;;;;17.65;10.23;;;;;;;32.74;30.72;98842.53;5116507;28;20040;-92
2021/08/15 08:46:18;;;;;;;14.18;10.32;;;;;;;32.87;30.03;98833.66;5115995;28;20027;-94
2021/08/15 08:48:44;;;;;;;17.30;10.63;;;;;;;32.93;29.60;98832.94;5116931;28;21007;-94
2021/08/15 08:51:10;;;;;;;16.38;10.75;;;;;;;33.07;29.58;98835.97;5123174;27;20063;-93
2021/08/15 08:53:38;;;;;;;16.48;10.32;;;;;;;33.15;29.09;98830.38;5118163;28;20089;-92
2021/08/15 08:56:04;;;;;;;17.08;10.55;;;;;;;33.11;28.68;98829.03;5115292;28;20048;-92
2021/08/15 08:58:30;;;;;;;19.45;11.35;;;;;;;33.12;30.25;98817.84;5115821;28;20077;-93
2021/08/15 09:00:56;;;;;;;16.70;9.63;;;;;;;33.38;27.85;98819.34;5115197;28;20035;-91
2021/08/15 09:03:22;;;;;;;16.98;9.88;;;;;;;33.45;28.57;98809.25;5116833;27;20035;-91
2021/08/15 09:05:52;;;;;;;13.98;9.68;;;;;;;33.65;28.03;98826.16;5111959;28;20080;-91
2021/08/15 09:08:24;;;;;;;19.17;10.20;;;;;;;33.28;28.61;98829.75;5104601;28;20043;-93
2021/08/15 09:10:51;;;;;;;13.77;9.30;;;;;;;33.11;27.79;98829.03;5114583;28;20054;-90
2021/08/15 09:13:24;;;;;;;11.90;9.43;;;;;;;33.47;27.75;98822.88;5113388;28;20131;-91
2021/08/15 09:15:56;;;;;;;14.57;9.88;;;;;;;33.65;28.33;98809.59;5113988;28;20062;-90
2021/08/15 09:18:29;;;;;;;15.80;10.48;;;;;;;33.52;27.67;98809.38;5114547;28;20049;-92
2021/08/15 09:20:57;;;;;;;16.25;9.27;;;;;;;33.75;27.74;98803.81;5114542;28;20044;-93
2021/08/15 09:23:24;;;;;;;;;;;;;;;33.91;26.80;98808.28;5116419;28;20489;-91
2021/08/15 09:26:17;;;;;;;14.38;9.10;;;;;;;34.11;27.14;98806.72;5116175;28;19919;-91
2021/08/15 09:28:44;;;;;;;17.67;8.73;;;;;;;34.26;26.20;98803.03;5114761;28;20043;-91
2021/08/15 09:31:25;;;;;;;11.27;8.30;;;;;;;34.34;26.29;98794.66;5113604;27;20063;-92
2021/08/15 09:33:53;;;;;;;20.80;9.45;;;;;;;34.04;26.48;98800.19;5115162;28;20500;-93
2021/08/15 09:36:30;;;;;;;14.57;8.25;;;;;;;34.43;26.24;98801.78;5115034;28;20096;-91
2021/08/15 09:38:58;;;;;;;17.60;8.60;;;;;;;34.58;26.08;98783.25;5113393;28;20508;-91
2021/08/15 09:41:27;;;;;;;15.25;8.30;;;;;;;34.26;25.47;98790.09;5110664;28;20078;-92
2021/08/15 09:44:20;;;;;;;11.90;8.57;;;;;;;34.21;26.02;98786.22;5115075;28;20039;-92
2021/08/15 09:47:00;;;;;;;15.38;8.55;;;;;;;34.12;26.21;98780.81;5108874;28;20048;-93
2021/08/15 09:49:35;;;;;;;12.63;8.55;;;;;;;34.20;26.39;98784.50;5112791;28;20038;-91
2021/08/15 09:52:01;;;;;;;12.82;8.30;;;;;;;34.64;25.51;98776.13;5112005;28;20046;-90
2021/08/15 09:54:28;;;;;;;14.98;8.45;;;;;;;34.72;25.27;98753.03;5112660;28;20031;-90
2021/08/15 09:56:57;;;;;;;18.42;7.70;;;;;;;34.96;24.74;98765.59;5112889;28;20039;-92
2021/08/15 09:59:24;;;;;;;13.93;7.63;;;;;;;35.00;23.03;98760.53;5114817;28;20057;-91
2021/08/15 10:01:51;;;;;;;12.40;7.20;;;;;;;35.36;22.76;98758.50;5114033;27;20497;-92
2021/08/15 10:04:18;;;;;;;15.35;7.78;;;;;;;35.22;23.42;98731.84;5112855;28;20040;-91
2021/08/15 10:06:45;;;;;;;14.75;7.40;;;;;;;35.34;23.26;98743.19;5112270;28;20058;-94
2021/08/15 10:09:12;;;;;;;15.23;6.70;;;;;;;35.30;22.27;98755.72;5112405;28;20440;-91
2021/08/15 10:11:39;;;;;;;21.73;7.60;;;;;;;35.35;22.98;98751.28;5112633;28;20040;-91
2021/08/15 10:14:08;;;;;;;18.83;7.13;;;;;;;35.53;22.09;98748.00;5111711;28;20047;-91
2021/08/15 10:16:36;;;;;;;16.13;7.38;;;;;;;35.58;21.97;98747.38;5111376;28;20284;-91
2021/08/15 10:19:07;;;;;;;16.15;7.25;;;;;;;35.57;22.22;98731.88;5113859;28;20047;-92
2021/08/15 10:21:38;;;;;;;16.02;6.95;;;;;;;35.74;21.90;98733.28;5110914;28;20046;-91
2021/08/15 10:24:10;;;;;;;18.05;7.22;;;;;;;35.81;21.80;98729.66;5111427;28;20527;-93
2021/08/15 10:26:41;;;;;;;15.50;7.63;;;;;;;35.89;22.66;98724.84;5108312;28;20067;-90
2021/08/15 10:29:34;;;;;;;16.65;8.25;;;;;;;35.96;23.33;98727.63;5112779;28;20035;-90
2021/08/15 10:32:17;;;;;;;16.05;8.02;;;;;;;36.05;22.76;98723.63;5095179;28;20505;-90
2021/08/15 10:35:13;;;;;;;18.85;8.68;;;;;;;36.07;22.26;98724.28;5112591;28;20050;-90
2021/08/15 10:37:39;;;;;;;13.93;8.27;;;;;;;35.77;22.54;98721.78;5112559;28;20065;-92
2021/08/15 10:40:05;;;;;;;14.85;8.05;;;;;;;35.94;22.83;98719.53;5114685;28;20044;-91
2021/08/15 10:42:45;;;;;;;13.23;7.57;;;;;;;36.16;22.85;98713.91;5113289;28;20392;-92
2021/08/15 10:45:22;;;;;;;14.40;7.57;;;;;;;36.25;22.58;98720.94;5112082;28;20064;-95
2021/08/15 10:48:21;;;;;;;13.05;8.18;;;;;;;36.20;22.03;98690.28;5110470;28;20047;-93
2021/08/15 10:50:48;;;;;;;17.33;7.32;;;;;;;36.06;22.39;98703.16;5110596;28;20062;-92
2021/08/15 10:53:40;;;;;;;11.85;7.25;;;;;;;35.87;22.73;98696.53;5115635;28;20043;-92
2021/08/15 10:56:08;;;;;;;15.77;8.38;;;;;;;36.01;22.50;98697.41;5106050;27;20028;-92
2021/08/15 10:58:36;;;;;;;15.75;7.55;;;;;;;36.06;22.20;98694.88;5114042;28;20063;-91
2021/08/15 11:01:04;;;;;;;15.65;7.65;;;;;;;36.04;22.97;98679.53;5108419;28;20051;-91
2021/08/15 11:03:39;;;;;;;17.45;8.13;;;;;;;36.21;22.09;98677.28;5111101;28;20044;-92
2021/08/15 11:06:21;;;;;;;13.00;8.00;;;;;;;36.20;22.18;98654.28;5112392;28;20546;-92
2021/08/15 11:08:54;;;;;;;16.85;8.05;;;;;;;36.36;21.79;98680.72;5112724;28;20031;-92
2021/08/15 11:14:26;;;;;;;14.90;7.30;;;;;;;36.65;21.81;98675.88;5150815;27;20366;-90
2021/08/15 11:16:53;;;;;;;14.45;7.35;;;;;;;36.66;22.28;98655.44;5149863;27;20078;-89
2021/08/15 11:19:33;;;;;;;16.45;7.40;;;;;;;36.44;22.15;98669.44;5152494;27;20419;-90
2021/08/15 11:22:04;;;;;;;19.25;7.72;;;;;;;36.47;22.04;98660.69;5151692;27;20130;-91
2021/08/15 11:24:31;;;;;;;13.73;7.18;;;;;;;36.64;21.70;98657.56;5153297;27;20039;-90
2021/08/15 11:26:58;;;;;;;12.35;7.40;;;;;;;36.48;21.62;98653.25;5153221;27;20043;-91
2021/08/15 11:29:26;;;;;;;15.70;7.53;;;;;;;36.54;21.64;98649.63;5151412;27;20088;-91